createdAt,value
2022-11-20T00:02:07.588Z,87.26
2022-11-20T00:04:40.955Z,87.35
2022-11-20T00:07:13.076Z,87.45
2022-11-20T00:09:45.470Z,87.73
2022-11-20T00:12:16.211Z,87.66
2022-11-20T00:14:47.453Z,87.65
2022-11-20T00:17:21.239Z,87.57
2022-11-20T00:19:56.785Z,87.52
2022-11-20T00:22:29.052Z,87.12
2022-11-20T00:25:03.028Z,87.10
2022-11-20T00:27:33.907Z,87.12
2022-11-20T00:30:06.840Z,87.49
2022-11-20T00:32:40.396Z,87.41
2022-11-20T00:35:13.107Z,87.46
2022-11-20T00:37:46.059Z,87.62
2022-11-20T00:40:18.385Z,87.46
2022-11-20T00:42:50.820Z,86.94
2022-11-20T00:45:21.722Z,86.75
2022-11-20T00:47:53.100Z,86.59
2022-11-20T00:50:26.247Z,86.78
2022-11-20T00:52:58.413Z,86.55
2022-11-20T00:55:29.985Z,86.80
2022-11-20T00:58:04.744Z,86.67
2022-11-20T01:00:39.397Z,86.61
2022-11-20T01:03:09.970Z,86.80
2022-11-20T01:05:42.150Z,86.49
2022-11-20T01:08:13.078Z,86.57
2022-11-20T01:10:45.191Z,86.60
2022-11-20T01:13:35.248Z,87.01
2022-11-20T01:16:12.775Z,86.59
2022-11-20T01:18:46.822Z,86.42
2022-11-20T01:21:23.224Z,86.40
2022-11-20T01:23:54.844Z,86.47
2022-11-20T01:26:30.561Z,86.55
2022-11-20T01:29:03.183Z,86.21
2022-11-20T01:31:39.880Z,85.98
2022-11-20T01:34:13.274Z,86.35
2022-11-20T01:36:46.467Z,86.12
2022-11-20T01:39:21.415Z,85.58
2022-11-20T01:42:13.329Z,85.69
2022-11-20T01:45:01.650Z,85.75
2022-11-20T01:47:45.316Z,85.78
2022-11-20T01:50:28.748Z,85.56
2022-11-20T01:53:02.350Z,85.86
2022-11-20T01:55:38.860Z,85.70
2022-11-20T01:58:10.949Z,86.04
2022-11-20T02:00:42.399Z,85.96
2022-11-20T02:03:17.299Z,85.89
2022-11-20T02:06:01.246Z,86.03
2022-11-20T02:08:33.308Z,85.65
2022-11-20T02:11:03.803Z,85.83
2022-11-20T02:13:44.226Z,85.64
2022-11-20T02:16:23.919Z,86.09
2022-11-20T02:18:56.842Z,85.56
2022-11-20T02:21:48.965Z,85.48
2022-11-20T02:24:24.541Z,85.36
2022-11-20T02:27:04.160Z,84.92
2022-11-20T02:29:37.988Z,84.97
2022-11-20T02:32:11.056Z,85.31
2022-11-20T02:34:42.500Z,85.81
2022-11-20T02:37:15.843Z,85.72
2022-11-20T02:39:48.214Z,85.53
2022-11-20T02:42:19.602Z,85.54
2022-11-20T02:44:50.093Z,85.37
2022-11-20T02:47:20.661Z,85.06
2022-11-20T02:49:51.560Z,85.12
2022-11-20T02:52:23.240Z,85.22
2022-11-20T02:54:54.411Z,85.27
2022-11-20T02:57:25.709Z,85.34
2022-11-20T02:59:56.978Z,85.33
2022-11-20T03:02:33.525Z,85.29
2022-11-20T03:05:04.099Z,85.49
2022-11-20T03:07:35.362Z,85.64
2022-11-20T03:10:09.053Z,85.24
2022-11-20T03:12:42.526Z,85.48
2022-11-20T03:15:13.524Z,85.62
2022-11-20T03:17:45.696Z,85.72
2022-11-20T03:20:16.210Z,85.38
2022-11-20T03:22:46.869Z,85.83
2022-11-20T03:25:17.538Z,85.64
2022-11-20T03:27:50.077Z,85.65
2022-11-20T03:30:23.995Z,85.43
2022-11-20T03:32:55.608Z,85.23
2022-11-20T03:35:27.776Z,85.17
2022-11-20T03:37:59.772Z,84.99
2022-11-20T03:40:30.612Z,85.22
2022-11-20T03:43:01.188Z,85.09
2022-11-20T03:45:31.656Z,84.80
2022-11-20T03:48:02.304Z,84.94
2022-11-20T03:50:34.472Z,85.43
2022-11-20T03:53:04.894Z,84.98
2022-11-20T03:55:36.819Z,84.64
2022-11-20T03:58:09.407Z,84.99
2022-11-20T04:00:39.849Z,85.15
2022-11-20T04:03:10.907Z,85.22
2022-11-20T04:05:41.837Z,85.60
2022-11-20T04:08:12.402Z,85.55
2022-11-20T04:10:43.139Z,85.39
2022-11-20T04:13:13.818Z,85.02
2022-11-20T04:15:45.246Z,84.74
2022-11-20T04:18:16.058Z,84.67
2022-11-20T04:20:47.189Z,85.12
2022-11-20T04:23:17.739Z,85.14
2022-11-20T04:25:48.188Z,85.00
2022-11-20T04:28:18.699Z,85.21
2022-11-20T04:30:49.168Z,85.10
2022-11-20T04:33:20.510Z,84.93
2022-11-20T04:35:53.354Z,85.06
2022-11-20T04:38:24.244Z,85.68
2022-11-20T04:41:00.110Z,85.40
2022-11-20T04:43:33.201Z,85.49
2022-11-20T04:46:07.130Z,85.63
2022-11-20T04:48:40.029Z,85.13
2022-11-20T04:51:10.572Z,85.44
2022-11-20T04:53:42.999Z,85.98
2022-11-20T04:56:15.465Z,85.65
2022-11-20T04:58:48.004Z,85.71
2022-11-20T05:01:24.422Z,85.89
2022-11-20T05:03:54.964Z,85.36
2022-11-20T05:06:26.881Z,85.30
2022-11-20T05:08:59.509Z,85.50
2022-11-20T05:11:32.016Z,85.23
2022-11-20T05:14:10.357Z,85.00
2022-11-20T05:16:41.228Z,85.15
2022-11-20T05:19:13.193Z,85.31
2022-11-20T05:21:43.798Z,85.64
2022-11-20T05:24:14.800Z,85.39
2022-11-20T05:26:45.895Z,85.49
2022-11-20T05:29:17.364Z,85.67
2022-11-20T05:31:48.200Z,85.40
2022-11-20T05:34:19.640Z,85.37
2022-11-20T05:36:50.366Z,85.81
2022-11-20T05:39:22.624Z,85.44
2022-11-20T05:41:55.193Z,85.90
2022-11-20T05:44:26.201Z,85.62
2022-11-20T05:46:56.938Z,85.66
2022-11-20T05:49:29.712Z,86.20
2022-11-20T05:52:00.452Z,85.83
2022-11-20T05:54:30.974Z,85.80
2022-11-20T05:57:04.028Z,86.01
2022-11-20T05:59:35.998Z,85.76
2022-11-20T06:02:07.176Z,85.68
2022-11-20T06:04:40.307Z,85.72
2022-11-20T06:07:12.248Z,86.01
2022-11-20T06:09:47.106Z,85.20
2022-11-20T06:12:20.836Z,85.43
2022-11-20T06:14:51.644Z,85.23
2022-11-20T06:17:23.788Z,85.16
2022-11-20T06:19:57.018Z,85.53
2022-11-20T06:22:33.869Z,85.45
2022-11-20T06:25:06.747Z,84.74
2022-11-20T06:27:40.218Z,84.91
2022-11-20T06:30:17.506Z,85.58
2022-11-20T06:32:46.523Z,85.86
2022-11-20T06:35:17.194Z,85.68
2022-11-20T06:37:47.777Z,86.06
2022-11-20T06:40:18.324Z,85.97
2022-11-20T06:42:49.000Z,86.07
2022-11-20T06:45:19.385Z,85.90
2022-11-20T06:47:49.750Z,85.96
2022-11-20T06:50:21.750Z,85.99
2022-11-20T06:52:52.189Z,85.85
2022-11-20T06:55:23.019Z,86.43
2022-11-20T06:57:56.119Z,86.20
2022-11-20T07:00:26.772Z,86.45
2022-11-20T07:03:01.509Z,86.16
2022-11-20T07:05:33.468Z,86.14
2022-11-20T07:08:08.869Z,85.61
2022-11-20T07:10:43.457Z,85.78
2022-11-20T07:13:13.989Z,85.70
2022-11-20T07:15:44.400Z,85.94
2022-11-20T07:18:14.842Z,85.11
2022-11-20T07:20:48.310Z,84.82
2022-11-20T07:23:20.797Z,85.08
2022-11-20T07:25:52.942Z,85.14
2022-11-20T07:28:25.057Z,85.63
2022-11-20T07:30:57.143Z,85.42
2022-11-20T07:33:27.929Z,85.56
2022-11-20T07:36:00.994Z,85.43
2022-11-20T07:38:31.670Z,84.62
2022-11-20T07:41:02.760Z,84.22
2022-11-20T07:43:40.836Z,83.88
2022-11-20T07:46:08.544Z,84.50
2022-11-20T07:48:40.801Z,84.33
2022-11-20T07:51:12.011Z,84.12
2022-11-20T07:53:43.173Z,83.96
2022-11-20T07:56:14.951Z,84.13
2022-11-20T07:58:45.652Z,83.82
2022-11-20T08:01:19.658Z,83.96
2022-11-20T08:03:49.747Z,82.33
2022-11-20T08:06:21.803Z,82.59
2022-11-20T08:08:53.785Z,83.12
2022-11-20T08:11:42.592Z,82.24
2022-11-20T08:14:15.985Z,81.83
2022-11-20T08:16:49.253Z,82.50
2022-11-20T08:19:22.340Z,82.36
2022-11-20T08:22:01.269Z,81.71
2022-11-20T08:24:33.907Z,81.62
2022-11-20T08:27:05.875Z,81.23
2022-11-20T08:29:37.726Z,81.58
2022-11-20T08:32:08.633Z,82.00
2022-11-20T08:34:42.069Z,81.92
2022-11-20T08:37:17.444Z,82.05
2022-11-20T08:39:49.623Z,82.03
2022-11-20T08:42:20.635Z,82.96
2022-11-20T08:44:57.293Z,82.25
2022-11-20T08:47:28.033Z,82.60
2022-11-20T08:50:01.072Z,81.71
2022-11-20T08:52:34.501Z,81.58
2022-11-20T08:55:06.297Z,81.61
2022-11-20T08:57:40.029Z,81.55
2022-11-20T09:00:14.213Z,81.51
2022-11-20T09:02:44.990Z,81.15
2022-11-20T09:05:16.777Z,81.31
2022-11-20T09:07:49.097Z,81.54
2022-11-20T09:10:24.725Z,81.28
2022-11-20T09:12:57.154Z,81.73
2022-11-20T09:15:29.621Z,82.09
2022-11-20T09:18:03.496Z,82.49
2022-11-20T09:20:34.721Z,82.58
2022-11-20T09:23:07.491Z,81.85
2022-11-20T09:25:38.119Z,82.08
2022-11-20T09:28:11.008Z,81.79
2022-11-20T09:30:44.531Z,81.40
2022-11-20T09:33:16.842Z,81.37
2022-11-20T09:35:50.720Z,81.37
2022-11-20T09:38:22.876Z,79.88
2022-11-20T09:41:09.637Z,80.21
2022-11-20T09:43:59.806Z,79.92
2022-11-20T09:46:44.789Z,79.64
2022-11-20T09:49:36.282Z,79.58
2022-11-20T09:52:26.209Z,79.85
2022-11-20T09:55:04.676Z,79.12
2022-11-20T09:57:38.711Z,78.61
2022-11-20T10:00:14.663Z,78.00
2022-11-20T10:03:06.398Z,78.16
2022-11-20T10:05:47.261Z,77.83
2022-11-20T10:08:24.584Z,78.06
2022-11-20T10:11:02.132Z,76.95
2022-11-20T10:13:39.023Z,77.15
2022-11-20T10:16:40.922Z,77.62
2022-11-20T10:19:36.736Z,77.62
2022-11-20T10:22:24.642Z,77.82
2022-11-20T10:25:16.173Z,78.47
2022-11-20T10:27:58.816Z,78.65
2022-11-20T10:30:31.491Z,78.39
2022-11-20T10:33:06.675Z,78.41
2022-11-20T10:35:49.276Z,78.03
2022-11-20T10:38:35.839Z,77.84
2022-11-20T10:41:27.383Z,78.68
2022-11-20T10:44:15.331Z,78.52
2022-11-20T10:46:50.017Z,78.17
2022-11-20T10:49:25.144Z,78.64
2022-11-20T10:52:06.438Z,78.54
2022-11-20T10:55:00.833Z,78.18
2022-11-20T10:57:40.780Z,78.59
2022-11-20T11:00:20.430Z,76.85
2022-11-20T11:02:54.063Z,76.70
2022-11-20T11:05:35.580Z,75.58
2022-11-20T11:08:09.020Z,75.06
2022-11-20T11:10:45.829Z,75.49
2022-11-20T11:13:25.242Z,74.68
2022-11-20T11:15:56.838Z,75.29
2022-11-20T11:18:33.966Z,75.59
2022-11-20T11:21:06.754Z,75.89
2022-11-20T11:23:45.144Z,76.17
2022-11-20T11:26:25.118Z,76.28
2022-11-20T11:29:05.068Z,75.35
2022-11-20T11:31:37.740Z,75.86
2022-11-20T11:34:19.090Z,75.53
2022-11-20T11:37:00.682Z,75.93
2022-11-20T11:39:35.015Z,77.00
2022-11-20T11:42:06.190Z,77.24
2022-11-20T11:44:55.106Z,77.72
2022-11-20T11:47:34.286Z,79.10
2022-11-20T11:50:13.683Z,80.04
2022-11-20T11:53:05.915Z,80.11
2022-11-20T11:55:46.341Z,80.44
2022-11-20T11:58:24.657Z,81.71
2022-11-20T12:00:59.839Z,81.71
2022-11-20T12:03:41.635Z,81.98
2022-11-20T12:06:19.401Z,82.92
2022-11-20T12:08:54.297Z,82.57
2022-11-20T12:11:47.417Z,82.72
2022-11-20T12:14:26.428Z,81.19
2022-11-20T12:17:00.428Z,81.07
2022-11-20T12:19:37.013Z,81.27
2022-11-20T12:22:34.989Z,81.06
2022-11-20T12:25:14.623Z,80.87
2022-11-20T12:28:12.813Z,80.56
2022-11-20T12:30:55.178Z,80.18
2022-11-20T12:33:54.384Z,80.56
2022-11-20T12:36:33.466Z,80.92
2022-11-20T12:39:20.823Z,80.80
2022-11-20T12:42:32.794Z,84.07
2022-11-20T12:45:20.329Z,80.94
2022-11-20T12:48:11.734Z,78.78
2022-11-20T12:51:15.443Z,75.85
2022-11-20T12:53:56.955Z,75.18
2022-11-20T12:56:40.376Z,75.98
2022-11-20T12:59:46.585Z,77.06
2022-11-20T13:02:45.870Z,77.96
2022-11-20T13:05:54.821Z,78.45
2022-11-20T13:08:40.905Z,79.45
2022-11-20T13:11:32.651Z,79.01
2022-11-20T13:14:11.852Z,79.39
2022-11-20T13:17:06.240Z,79.15
2022-11-20T13:19:36.740Z,79.68
2022-11-20T13:22:08.281Z,80.04
2022-11-20T13:24:38.656Z,79.69
2022-11-20T13:27:21.199Z,79.94
2022-11-20T13:30:09.925Z,79.97
2022-11-20T13:32:44.485Z,80.43
2022-11-20T13:35:18.108Z,80.53
2022-11-20T13:37:49.804Z,80.69
2022-11-20T13:40:23.339Z,80.72
2022-11-20T13:43:01.236Z,80.64
2022-11-20T13:45:36.108Z,80.22
2022-11-20T13:48:10.484Z,80.54
2022-11-20T13:50:53.894Z,80.73
2022-11-20T13:53:46.807Z,80.59
2022-11-20T13:56:29.227Z,80.75
2022-11-20T13:59:18.873Z,80.60
2022-11-20T14:01:51.344Z,81.07
2022-11-20T14:04:25.673Z,81.56
2022-11-20T14:06:56.826Z,81.69
2022-11-20T14:09:34.948Z,82.15
2022-11-20T14:12:09.974Z,81.41
2022-11-20T14:14:43.480Z,82.10
2022-11-20T14:17:29.265Z,82.11
2022-11-20T14:20:03.914Z,81.96
2022-11-20T14:22:34.949Z,82.31
2022-11-20T14:25:24.639Z,82.22
2022-11-20T14:28:03.155Z,82.56
2022-11-20T14:30:39.498Z,82.62
2022-11-20T14:33:12.959Z,82.38
2022-11-20T14:35:46.522Z,82.55
2022-11-20T14:38:21.070Z,82.01
2022-11-20T14:40:54.989Z,82.52
2022-11-20T14:43:30.993Z,82.36
2022-11-20T14:46:04.918Z,82.49
2022-11-20T14:48:47.485Z,82.38
2022-11-20T14:51:41.482Z,82.53
2022-11-20T14:54:16.990Z,82.01
2022-11-20T14:57:00.540Z,82.34
2022-11-20T14:59:33.826Z,81.80
2022-11-20T15:02:07.532Z,82.13
2022-11-20T15:05:03.386Z,81.84
2022-11-20T15:07:37.223Z,81.81
2022-11-20T15:10:31.347Z,81.36
2022-11-20T15:13:19.018Z,81.95
2022-11-20T15:16:00.307Z,81.78
2022-11-20T15:18:38.979Z,81.95
2022-11-20T15:21:20.123Z,82.13
2022-11-20T15:23:53.203Z,81.97
2022-11-20T15:26:31.273Z,82.01
2022-11-20T15:29:04.118Z,82.03
2022-11-20T15:31:36.205Z,82.07
2022-11-20T15:34:11.249Z,81.90
2022-11-20T15:36:42.594Z,82.01
2022-11-20T15:39:15.619Z,81.71
2022-11-20T15:41:46.032Z,81.94
2022-11-20T15:44:17.665Z,81.71
2022-11-20T15:46:48.993Z,81.55
2022-11-20T15:49:24.365Z,81.76
2022-11-20T15:51:54.967Z,81.61
2022-11-20T15:54:26.644Z,82.07
2022-11-20T15:56:57.449Z,82.86
2022-11-20T15:59:28.924Z,82.61
2022-11-20T16:02:00.823Z,83.19
2022-11-20T16:04:31.903Z,83.44
2022-11-20T16:07:02.713Z,83.09
2022-11-20T16:09:35.318Z,82.90
2022-11-20T16:12:12.260Z,83.17
2022-11-20T16:14:59.521Z,84.08
2022-11-20T16:17:35.062Z,84.21
2022-11-20T16:20:07.788Z,84.14
2022-11-20T16:22:38.269Z,84.18
2022-11-20T16:25:10.889Z,84.11
2022-11-20T16:27:41.392Z,83.99
2022-11-20T16:30:12.577Z,84.35
2022-11-20T16:32:43.401Z,84.13
2022-11-20T16:35:14.240Z,84.20
2022-11-20T16:37:47.060Z,84.07
2022-11-20T16:40:19.634Z,84.42
2022-11-20T16:42:54.661Z,84.03
2022-11-20T16:45:31.290Z,83.98
2022-11-20T16:47:58.901Z,84.47
2022-11-20T16:50:31.616Z,83.95
2022-11-20T16:53:03.436Z,84.24
2022-11-20T16:55:35.538Z,84.40
2022-11-20T16:58:08.491Z,83.59
2022-11-20T17:00:43.623Z,83.57
2022-11-20T17:03:14.636Z,82.85
2022-11-20T17:05:45.216Z,83.10
2022-11-20T17:08:15.792Z,82.86
2022-11-20T17:10:47.215Z,82.50
2022-11-20T17:13:19.208Z,82.43
2022-11-20T17:15:50.895Z,82.34
2022-11-20T17:18:23.083Z,81.59
2022-11-20T17:20:56.552Z,81.71
2022-11-20T17:23:33.909Z,81.46
2022-11-20T17:26:18.762Z,81.66
2022-11-20T17:29:02.877Z,81.70
2022-11-20T17:31:37.138Z,81.83
2022-11-20T17:34:11.162Z,81.26
2022-11-20T17:36:47.309Z,81.60
2022-11-20T17:39:21.186Z,81.67
2022-11-20T17:41:54.279Z,81.35
2022-11-20T17:44:25.168Z,80.92
2022-11-20T17:46:57.374Z,81.10
2022-11-20T17:49:29.598Z,81.50
2022-11-20T17:52:02.054Z,81.23
2022-11-20T17:54:33.032Z,80.99
2022-11-20T17:57:29.731Z,80.90
2022-11-20T18:00:01.602Z,81.02
2022-11-20T18:02:33.879Z,80.52
2022-11-20T18:05:04.795Z,80.63
2022-11-20T18:07:42.352Z,81.03
2022-11-20T18:10:14.298Z,81.23
2022-11-20T18:12:46.036Z,81.43
2022-11-20T18:15:19.567Z,81.64
2022-11-20T18:17:50.271Z,81.86
2022-11-20T18:20:33.121Z,81.78
2022-11-20T18:22:57.011Z,82.43
2022-11-20T18:25:28.173Z,82.47
2022-11-20T18:28:00.121Z,82.27
2022-11-20T18:30:35.063Z,82.40
2022-11-20T18:33:08.011Z,82.70
2022-11-20T18:35:40.894Z,83.38
2022-11-20T18:38:15.315Z,83.30
2022-11-20T18:40:47.647Z,83.33
2022-11-20T18:43:38.329Z,83.56
2022-11-20T18:46:08.871Z,83.83
2022-11-20T18:48:39.406Z,83.35
2022-11-20T18:51:14.479Z,83.79
2022-11-20T18:53:47.686Z,84.17
2022-11-20T18:56:19.755Z,84.52
2022-11-20T18:58:50.316Z,84.62
2022-11-20T19:01:20.904Z,84.12
2022-11-20T19:03:55.786Z,84.03
2022-11-20T19:06:29.722Z,84.08
2022-11-20T19:09:04.435Z,84.80
2022-11-20T19:11:38.942Z,84.94
2022-11-20T19:14:09.964Z,84.46
2022-11-20T19:16:45.277Z,84.85
2022-11-20T19:19:19.396Z,85.09
2022-11-20T19:21:51.567Z,84.72
2022-11-20T19:24:24.012Z,85.16
2022-11-20T19:26:57.984Z,84.54
2022-11-20T19:29:31.421Z,84.94
2022-11-20T19:32:03.912Z,84.57
2022-11-20T19:34:35.317Z,84.45
2022-11-20T19:37:09.538Z,84.86
2022-11-20T19:39:41.660Z,84.99
2022-11-20T19:42:13.133Z,84.64
2022-11-20T19:44:44.495Z,84.54
2022-11-20T19:47:15.178Z,84.75
2022-11-20T19:49:45.552Z,84.64
2022-11-20T19:52:17.536Z,84.84
2022-11-20T19:54:48.035Z,84.37
2022-11-20T19:57:19.999Z,84.56
2022-11-20T19:59:52.515Z,84.10
2022-11-20T20:02:24.981Z,83.56
2022-11-20T20:04:55.573Z,83.59
2022-11-20T20:07:26.660Z,83.57
2022-11-20T20:09:57.011Z,83.51
2022-11-20T20:12:28.932Z,83.76
2022-11-20T20:15:00.927Z,83.16
2022-11-20T20:17:32.705Z,83.57
2022-11-20T20:20:03.258Z,83.75
2022-11-20T20:22:35.772Z,83.78
2022-11-20T20:25:10.837Z,83.45
2022-11-20T20:27:43.420Z,83.40
2022-11-20T20:30:14.418Z,83.63
2022-11-20T20:32:45.098Z,83.88
2022-11-20T20:35:16.992Z,84.02
2022-11-20T20:37:47.509Z,84.66
2022-11-20T20:40:19.292Z,84.35
2022-11-20T20:42:50.245Z,84.89
2022-11-20T20:45:20.716Z,84.76
2022-11-20T20:47:51.165Z,84.87
2022-11-20T20:50:22.141Z,85.22
2022-11-20T20:52:55.136Z,85.55
2022-11-20T20:55:28.571Z,85.69
2022-11-20T20:58:02.232Z,85.87
2022-11-20T21:00:32.803Z,85.66
2022-11-20T21:03:05.130Z,85.99
2022-11-20T21:05:35.568Z,85.63
2022-11-20T21:08:24.870Z,85.43
2022-11-20T21:11:00.061Z,85.74
2022-11-20T21:13:33.101Z,85.89
2022-11-20T21:16:07.396Z,85.27
2022-11-20T21:18:38.350Z,85.88
2022-11-20T21:21:29.319Z,86.05
2022-11-20T21:24:03.794Z,86.40
2022-11-20T21:26:35.916Z,86.77
2022-11-20T21:29:07.915Z,86.74
2022-11-20T21:31:38.416Z,86.82
2022-11-20T21:34:11.983Z,86.85
2022-11-20T21:36:43.315Z,87.12
2022-11-20T21:39:16.394Z,87.16
2022-11-20T21:41:46.910Z,87.47
2022-11-20T21:44:33.804Z,87.09
2022-11-20T21:46:52.089Z,87.03
2022-11-20T21:49:23.836Z,87.12
2022-11-20T21:51:59.200Z,87.50
2022-11-20T21:54:31.560Z,87.69
2022-11-20T21:57:05.099Z,87.67
2022-11-20T21:59:37.621Z,87.56
2022-11-20T22:02:12.582Z,87.31
2022-11-20T22:04:46.423Z,87.58
2022-11-20T22:07:18.733Z,88.14
2022-11-20T22:09:50.994Z,88.00
2022-11-20T22:12:27.364Z,87.79
2022-11-20T22:15:04.841Z,87.56
2022-11-20T22:17:54.686Z,87.30
2022-11-20T22:20:26.663Z,86.94
2022-11-20T22:22:58.252Z,86.82
2022-11-20T22:25:32.338Z,87.06
2022-11-20T22:28:05.437Z,87.16
2022-11-20T22:30:37.940Z,87.40
2022-11-20T22:33:13.530Z,87.68
2022-11-20T22:35:45.668Z,87.56
2022-11-20T22:38:16.491Z,87.57
2022-11-20T22:40:48.573Z,87.54
2022-11-20T22:43:21.919Z,87.54
2022-11-20T22:45:57.715Z,87.63
2022-11-20T22:48:28.171Z,87.69
2022-11-20T22:51:14.503Z,87.50
2022-11-20T22:53:50.835Z,87.97
2022-11-20T22:56:24.543Z,88.02
2022-11-20T22:59:01.761Z,87.87
2022-11-20T23:01:39.607Z,87.77
2022-11-20T23:04:09.472Z,87.83
2022-11-20T23:06:41.916Z,88.11
2022-11-20T23:09:12.971Z,88.31
2022-11-20T23:11:46.995Z,88.35
2022-11-20T23:14:17.760Z,88.40
2022-11-20T23:16:51.938Z,88.42
2022-11-20T23:19:24.062Z,88.18
2022-11-20T23:21:55.030Z,87.83
2022-11-20T23:24:30.931Z,87.50
2022-11-20T23:27:02.565Z,87.46
2022-11-20T23:29:35.400Z,87.22
2022-11-20T23:32:07.176Z,86.96
2022-11-20T23:34:37.733Z,86.69
2022-11-20T23:37:08.170Z,86.43
2022-11-20T23:39:40.917Z,86.21
2022-11-20T23:42:13.674Z,85.99
2022-11-20T23:44:44.548Z,85.72
2022-11-20T23:47:17.718Z,85.67
2022-11-20T23:49:50.718Z,85.48
2022-11-20T23:52:23.605Z,85.31
2022-11-20T23:54:54.635Z,85.23
2022-11-20T23:57:27.895Z,85.40
2022-11-20T23:59:59.514Z,84.92
